createdAt,value
2022-08-25T00:00:41.928Z,17.68
2022-08-25T00:05:46.741Z,17.71
2022-08-25T00:10:57.742Z,17.62
2022-08-25T00:16:06.549Z,17.44
2022-08-25T00:21:09.959Z,17.35
2022-08-25T00:26:15.684Z,17.33
2022-08-25T00:31:21.288Z,17.36
2022-08-25T00:36:24.187Z,17.38
2022-08-25T00:41:28.593Z,17.42
2022-08-25T00:46:34.761Z,17.27
2022-08-25T00:51:40.751Z,17.14
2022-08-25T00:56:45.818Z,16.91
2022-08-25T01:01:49.528Z,16.80
2022-08-25T01:06:52.945Z,16.67
2022-08-25T01:11:57.198Z,16.59
2022-08-25T01:17:00.306Z,16.55
2022-08-25T01:22:05.872Z,16.52
2022-08-25T01:27:09.377Z,16.52
2022-08-25T01:32:14.229Z,16.44
2022-08-25T01:37:19.169Z,16.45
2022-08-25T01:42:35.257Z,16.39
2022-08-25T01:47:38.660Z,16.42
2022-08-25T01:52:52.684Z,16.33
2022-08-25T01:57:55.693Z,16.26
2022-08-25T02:02:58.618Z,16.28
2022-08-25T02:08:02.949Z,16.17
2022-08-25T02:13:06.351Z,15.94
2022-08-25T02:18:11.786Z,15.91
2022-08-25T02:23:16.037Z,15.84
2022-08-25T02:28:18.877Z,15.98
2022-08-25T02:33:22.275Z,15.90
2022-08-25T02:38:27.977Z,15.74
2022-08-25T02:43:30.757Z,15.64
2022-08-25T02:48:33.595Z,15.47
2022-08-25T02:53:39.727Z,15.43
2022-08-25T02:58:44.216Z,15.39
2022-08-25T03:03:48.671Z,15.44
2022-08-25T03:08:53.167Z,15.46
2022-08-25T03:13:56.384Z,15.54
2022-08-25T03:18:59.645Z,15.53
2022-08-25T03:24:05.194Z,15.32
2022-08-25T03:29:08.229Z,15.11
2022-08-25T03:34:11.070Z,15.07
2022-08-25T03:39:16.077Z,15.04
2022-08-25T03:44:20.260Z,15.11
2022-08-25T03:49:24.817Z,15.17
2022-08-25T03:54:29.015Z,15.24
2022-08-25T03:59:31.843Z,15.13
2022-08-25T04:04:35.682Z,15.15
2022-08-25T04:09:39.841Z,15.17
2022-08-25T04:14:42.744Z,15.10
2022-08-25T04:19:45.546Z,15.03
2022-08-25T04:24:49.828Z,14.93
2022-08-25T04:29:52.634Z,14.97
2022-08-25T04:34:55.444Z,14.94
2022-08-25T04:39:59.611Z,14.84
2022-08-25T04:45:04.096Z,14.89
2022-08-25T04:50:08.124Z,14.78
2022-08-25T04:55:12.301Z,14.76
2022-08-25T05:00:16.699Z,14.88
2022-08-25T05:05:19.609Z,14.95
2022-08-25T05:10:24.188Z,14.95
2022-08-25T05:15:46.562Z,14.93
2022-08-25T05:20:49.898Z,14.95
2022-08-25T05:25:54.090Z,15.11
2022-08-25T05:30:59.742Z,15.11
2022-08-25T05:36:03.011Z,14.98
2022-08-25T05:41:09.803Z,14.96
2022-08-25T05:46:13.994Z,15.02
2022-08-25T05:51:17.901Z,15.11
2022-08-25T05:56:22.570Z,15.27
2022-08-25T06:01:45.881Z,15.41
2022-08-25T06:06:48.794Z,15.58
2022-08-25T06:11:55.210Z,15.68
2022-08-25T06:16:58.737Z,15.80
2022-08-25T06:22:01.682Z,15.99
2022-08-25T06:27:06.165Z,16.16
2022-08-25T06:32:08.958Z,16.29
2022-08-25T06:37:11.768Z,16.50
2022-08-25T06:42:16.099Z,16.75
2022-08-25T06:47:19.830Z,16.83
2022-08-25T06:52:22.810Z,17.00
2022-08-25T06:57:35.738Z,17.21
2022-08-25T07:02:39.488Z,17.27
2022-08-25T07:07:44.390Z,17.28
2022-08-25T07:12:48.564Z,17.37
2022-08-25T07:17:51.433Z,17.50
2022-08-25T07:22:54.200Z,17.73
2022-08-25T07:27:59.098Z,17.92
2022-08-25T07:33:05.866Z,18.11
2022-08-25T07:38:12.577Z,18.24
2022-08-25T07:43:17.813Z,18.48
2022-08-25T07:48:20.739Z,18.63
2022-08-25T07:53:23.544Z,18.84
2022-08-25T07:58:27.752Z,19.06
2022-08-25T08:03:45.079Z,19.19
2022-08-25T08:08:57.869Z,19.40
2022-08-25T08:14:03.927Z,19.64
2022-08-25T08:19:07.016Z,19.81
2022-08-25T08:24:24.771Z,19.85
2022-08-25T08:29:34.247Z,20.01
2022-08-25T08:34:38.232Z,20.24
2022-08-25T08:39:41.317Z,20.50
2022-08-25T08:44:58.043Z,20.53
2022-08-25T08:50:07.253Z,20.73
2022-08-25T08:55:20.398Z,20.87
2022-08-25T09:00:25.542Z,20.98
2022-08-25T09:05:30.619Z,21.12
2022-08-25T09:10:58.604Z,21.37
2022-08-25T09:16:33.969Z,21.57
2022-08-25T09:21:43.917Z,21.70
2022-08-25T09:26:55.102Z,21.81
2022-08-25T09:32:03.619Z,21.95
2022-08-25T09:37:06.604Z,22.12
2022-08-25T09:42:10.850Z,22.28
2022-08-25T09:47:23.157Z,22.41
2022-08-25T09:52:41.187Z,22.51
2022-08-25T09:57:49.188Z,22.62
2022-08-25T10:03:07.026Z,22.77
2022-08-25T10:08:16.298Z,22.96
2022-08-25T10:13:23.662Z,23.12
2022-08-25T10:18:30.762Z,23.29
2022-08-25T10:23:38.375Z,23.43
2022-08-25T10:28:51.989Z,23.46
2022-08-25T10:34:10.884Z,23.55
2022-08-25T10:39:36.366Z,23.70
2022-08-25T10:45:11.395Z,23.86
2022-08-25T10:50:25.786Z,23.98
2022-08-25T10:55:35.965Z,24.15
2022-08-25T11:00:50.030Z,24.30
2022-08-25T11:06:01.501Z,24.34
2022-08-25T11:11:10.537Z,24.46
2022-08-25T11:16:18.880Z,24.63
2022-08-25T11:21:28.577Z,24.82
2022-08-25T11:26:37.206Z,24.91
2022-08-25T11:31:48.352Z,25.25
2022-08-25T11:37:01.267Z,25.46
2022-08-25T11:42:18.330Z,25.52
2022-08-25T11:47:42.056Z,25.80
2022-08-25T11:52:55.912Z,26.12
2022-08-25T11:58:30.667Z,26.25
2022-08-25T12:03:54.853Z,26.45
2022-08-25T12:09:19.549Z,26.78
2022-08-25T12:14:43.872Z,26.98
2022-08-25T12:19:51.992Z,27.21
2022-08-25T12:25:06.915Z,27.54
2022-08-25T12:30:20.799Z,27.64
2022-08-25T12:35:33.101Z,27.75
2022-08-25T12:40:40.685Z,27.88
2022-08-25T12:45:46.185Z,28.10
2022-08-25T12:50:57.714Z,28.21
2022-08-25T12:56:06.826Z,28.32
2022-08-25T13:01:32.798Z,28.48
2022-08-25T13:06:53.793Z,28.76
2022-08-25T13:12:07.602Z,29.15
2022-08-25T13:17:10.793Z,29.23
2022-08-25T13:22:17.605Z,29.48
2022-08-25T13:27:25.457Z,30.03
2022-08-25T13:32:32.342Z,30.20
2022-08-25T13:37:38.455Z,30.50
2022-08-25T13:42:49.728Z,30.79
2022-08-25T13:47:56.340Z,30.82
2022-08-25T13:53:02.775Z,30.99
2022-08-25T13:58:14.614Z,31.06
2022-08-25T14:03:33.318Z,31.37
2022-08-25T14:08:38.449Z,31.78
2022-08-25T14:13:44.443Z,32.26
2022-08-25T14:18:49.942Z,32.42
2022-08-25T14:23:54.236Z,33.19
2022-08-25T14:28:58.389Z,34.25
2022-08-25T14:34:03.816Z,35.25
2022-08-25T14:39:08.603Z,35.89
2022-08-25T14:44:15.056Z,36.48
2022-08-25T14:49:24.983Z,36.71
2022-08-25T14:54:29.039Z,37.35
2022-08-25T14:59:33.421Z,37.42
2022-08-25T15:04:38.063Z,36.44
2022-08-25T15:09:42.946Z,34.88
2022-08-25T15:14:47.106Z,33.73
2022-08-25T15:19:49.914Z,33.69
2022-08-25T15:24:52.713Z,34.21
2022-08-25T15:29:56.945Z,35.40
2022-08-25T15:35:00.349Z,35.84
2022-08-25T15:40:03.492Z,36.34
2022-08-25T15:45:12.549Z,36.33
2022-08-25T15:50:21.986Z,35.63
2022-08-25T15:55:28.360Z,34.70
2022-08-25T16:00:33.039Z,33.65
2022-08-25T16:05:37.308Z,33.45
2022-08-25T16:10:42.355Z,34.35
2022-08-25T16:15:53.199Z,35.06
2022-08-25T16:20:57.321Z,35.28
2022-08-25T16:26:00.987Z,35.84
2022-08-25T16:31:07.418Z,35.87
2022-08-25T16:36:13.722Z,35.87
2022-08-25T16:41:19.407Z,35.83
2022-08-25T16:46:23.878Z,35.24
2022-08-25T16:51:29.651Z,34.72
2022-08-25T16:56:37.210Z,34.58
2022-08-25T17:01:43.147Z,34.17
2022-08-25T17:06:49.398Z,33.92
2022-08-25T17:11:56.911Z,33.87
2022-08-25T17:17:01.225Z,33.67
2022-08-25T17:22:04.033Z,33.40
2022-08-25T17:27:09.491Z,32.74
2022-08-25T17:32:13.683Z,32.01
2022-08-25T17:37:17.177Z,31.26
2022-08-25T17:42:20.880Z,30.57
2022-08-25T17:47:25.189Z,30.02
2022-08-25T17:52:28.011Z,29.95
2022-08-25T17:57:30.837Z,29.73
2022-08-25T18:02:35.137Z,29.34
2022-08-25T18:07:37.981Z,29.09
2022-08-25T18:12:40.822Z,28.65
2022-08-25T18:17:47.813Z,28.50
2022-08-25T18:22:51.369Z,28.27
2022-08-25T18:27:54.909Z,28.18
2022-08-25T18:33:00.063Z,27.99
2022-08-25T18:38:21.227Z,27.79
2022-08-25T18:43:24.122Z,27.55
2022-08-25T18:48:29.004Z,27.48
2022-08-25T18:53:49.778Z,27.31
2022-08-25T18:58:53.597Z,27.20
2022-08-25T19:03:58.143Z,27.17
2022-08-25T19:09:02.143Z,27.09
2022-08-25T19:14:12.073Z,26.95
2022-08-25T19:19:16.515Z,26.85
2022-08-25T19:24:19.717Z,26.72
2022-08-25T19:29:23.478Z,26.66
2022-08-25T19:34:30.670Z,26.63
2022-08-25T19:39:35.958Z,26.53
2022-08-25T19:44:42.529Z,26.46
2022-08-25T19:49:47.732Z,26.35
2022-08-25T19:54:52.746Z,26.24
2022-08-25T19:59:55.970Z,26.14
2022-08-25T20:05:00.870Z,26.07
2022-08-25T20:10:05.807Z,26.07
2022-08-25T20:15:10.436Z,26.12
2022-08-25T20:20:18.002Z,26.15
2022-08-25T20:25:25.177Z,26.16
2022-08-25T20:30:31.004Z,26.06
2022-08-25T20:35:35.194Z,26.05
2022-08-25T20:40:40.708Z,26.00
2022-08-25T20:45:46.388Z,25.90
2022-08-25T20:50:57.366Z,25.79
2022-08-25T20:56:00.677Z,25.70
2022-08-25T21:01:03.558Z,25.61
2022-08-25T21:06:09.417Z,25.50
2022-08-25T21:11:13.133Z,25.53
2022-08-25T21:16:17.850Z,25.49
2022-08-25T21:21:23.853Z,25.46
2022-08-25T21:26:30.568Z,25.28
2022-08-25T21:31:33.785Z,25.16
2022-08-25T21:36:37.970Z,24.99
2022-08-25T21:41:43.014Z,24.96
2022-08-25T21:46:54.111Z,24.96
2022-08-25T21:52:00.993Z,24.87
2022-08-25T21:57:06.824Z,24.68
2022-08-25T22:02:13.105Z,24.65
2022-08-25T22:07:17.432Z,24.59
2022-08-25T22:12:20.460Z,24.48
2022-08-25T22:17:24.511Z,24.31
2022-08-25T22:22:29.034Z,24.37
2022-08-25T22:27:31.875Z,24.34
2022-08-25T22:32:34.854Z,24.19
2022-08-25T22:37:39.027Z,24.10
2022-08-25T22:42:47.801Z,24.02
2022-08-25T22:47:52.195Z,23.90
2022-08-25T22:52:57.571Z,23.79
2022-08-25T22:58:01.030Z,23.67
2022-08-25T23:03:03.903Z,23.64
2022-08-25T23:08:10.961Z,23.54
2022-08-25T23:13:30.984Z,23.45
2022-08-25T23:18:40.546Z,23.45
2022-08-25T23:23:47.950Z,23.36
2022-08-25T23:28:52.279Z,23.04
2022-08-25T23:33:55.142Z,22.68
2022-08-25T23:38:59.331Z,22.53
2022-08-25T23:44:01.937Z,22.56
2022-08-25T23:49:09.263Z,22.53
2022-08-25T23:54:13.911Z,22.15
2022-08-25T23:59:17.070Z,22.18
